sensor_id;sensor_type;location;lat;lon;timestamp;pressure;altitude;pressure_sealevel;temperature;humidity
9523;BME280;63165;43.016;25.784;2023-04-04T00:00:15;98916.03;;;12.61;80.94
9523;BME280;63165;43.016;25.784;2023-04-04T00:02:42;98888.94;;;12.40;80.52
9523;BME280;63165;43.016;25.784;2023-04-04T00:05:10;98908.84;;;12.46;80.64
9523;BME280;63165;43.016;25.784;2023-04-04T00:07:37;98873.63;;;12.31;80.72
9523;BME280;63165;43.016;25.784;2023-04-04T00:10:07;98892.28;;;12.43;80.99
9523;BME280;63165;43.016;25.784;2023-04-04T00:12:35;98894.13;;;12.41;80.61
9523;BME280;63165;43.016;25.784;2023-04-04T00:15:03;98897.63;;;12.42;81.18
9523;BME280;63165;43.016;25.784;2023-04-04T00:17:30;98892.66;;;12.34;80.72
9523;BME280;63165;43.016;25.784;2023-04-04T00:19:57;98900.09;;;12.45;80.32
9523;BME280;63165;43.016;25.784;2023-04-04T00:22:24;98894.06;;;12.43;80.26
9523;BME280;63165;43.016;25.784;2023-04-04T00:24:51;98892.88;;;12.50;80.35
9523;BME280;63165;43.016;25.784;2023-04-04T00:27:20;98887.28;;;12.58;79.51
9523;BME280;63165;43.016;25.784;2023-04-04T00:29:47;98855.88;;;12.36;79.72
9523;BME280;63165;43.016;25.784;2023-04-04T00:32:15;98904.94;;;12.54;79.79
9523;BME280;63165;43.016;25.784;2023-04-04T00:34:42;98876.53;;;12.43;79.64
9523;BME280;63165;43.016;25.784;2023-04-04T00:37:09;98906.72;;;12.54;79.74
9523;BME280;63165;43.016;25.784;2023-04-04T00:39:37;98888.25;;;12.36;79.82
9523;BME280;63165;43.016;25.784;2023-04-04T00:42:05;98914.13;;;12.44;79.92
9523;BME280;63165;43.016;25.784;2023-04-04T00:44:34;98915.81;;;12.45;80.34
9523;BME280;63165;43.016;25.784;2023-04-04T00:47:03;98917.66;;;12.43;80.70
9523;BME280;63165;43.016;25.784;2023-04-04T00:49:30;98908.88;;;12.44;81.42
9523;BME280;63165;43.016;25.784;2023-04-04T00:51:59;98900.28;;;12.40;81.86
9523;BME280;63165;43.016;25.784;2023-04-04T00:54:26;98910.06;;;12.37;82.02
9523;BME280;63165;43.016;25.784;2023-04-04T00:56:53;98909.06;;;12.39;82.93
9523;BME280;63165;43.016;25.784;2023-04-04T00:59:20;98916.22;;;12.36;83.08
9523;BME280;63165;43.016;25.784;2023-04-04T01:01:49;98897.06;;;12.34;83.46
9523;BME280;63165;43.016;25.784;2023-04-04T01:04:17;98881.25;;;12.15;84.59
9523;BME280;63165;43.016;25.784;2023-04-04T01:06:44;98889.00;;;12.18;84.96
9523;BME280;63165;43.016;25.784;2023-04-04T01:09:11;98902.22;;;12.15;85.53
9523;BME280;63165;43.016;25.784;2023-04-04T01:11:39;98903.03;;;12.17;85.90
9523;BME280;63165;43.016;25.784;2023-04-04T01:14:06;98914.50;;;12.14;86.40
9523;BME280;63165;43.016;25.784;2023-04-04T01:16:33;98919.97;;;12.08;87.26
9523;BME280;63165;43.016;25.784;2023-04-04T01:19:05;98916.56;;;12.06;87.53
9523;BME280;63165;43.016;25.784;2023-04-04T01:21:35;98935.72;;;12.08;87.63
9523;BME280;63165;43.016;25.784;2023-04-04T01:24:03;98930.59;;;12.05;88.05
9523;BME280;63165;43.016;25.784;2023-04-04T01:26:31;98939.38;;;12.04;88.02
9523;BME280;63165;43.016;25.784;2023-04-04T01:28:59;98924.22;;;11.90;88.45
9523;BME280;63165;43.016;25.784;2023-04-04T01:31:29;98933.34;;;12.02;88.71
9523;BME280;63165;43.016;25.784;2023-04-04T01:34:05;98938.00;;;11.95;88.76
9523;BME280;63165;43.016;25.784;2023-04-04T01:36:41;98918.31;;;11.83;89.78
9523;BME280;63165;43.016;25.784;2023-04-04T01:39:19;98929.47;;;11.89;89.68
9523;BME280;63165;43.016;25.784;2023-04-04T01:41:50;98891.94;;;11.66;89.97
9523;BME280;63165;43.016;25.784;2023-04-04T01:44:18;98916.69;;;11.81;90.37
9523;BME280;63165;43.016;25.784;2023-04-04T01:46:45;98910.81;;;11.74;91.00
9523;BME280;63165;43.016;25.784;2023-04-04T01:49:12;98897.19;;;11.66;91.36
9523;BME280;63165;43.016;25.784;2023-04-04T01:51:40;98906.88;;;11.64;91.48
9523;BME280;63165;43.016;25.784;2023-04-04T01:54:08;98905.41;;;11.57;92.31
9523;BME280;63165;43.016;25.784;2023-04-04T01:56:35;98894.25;;;11.52;92.76
9523;BME280;63165;43.016;25.784;2023-04-04T01:59:04;98906.50;;;11.51;92.95
9523;BME280;63165;43.016;25.784;2023-04-04T02:01:31;98902.59;;;11.39;93.23
9523;BME280;63165;43.016;25.784;2023-04-04T02:03:59;98908.56;;;11.43;93.59
9523;BME280;63165;43.016;25.784;2023-04-04T02:06:26;98902.47;;;11.42;93.71
9523;BME280;63165;43.016;25.784;2023-04-04T02:08:54;98904.19;;;11.43;94.20
9523;BME280;63165;43.016;25.784;2023-04-04T02:11:21;98897.41;;;11.38;94.61
9523;BME280;63165;43.016;25.784;2023-04-04T02:13:49;98906.91;;;11.40;94.64
9523;BME280;63165;43.016;25.784;2023-04-04T02:16:17;98870.09;;;11.21;95.04
9523;BME280;63165;43.016;25.784;2023-04-04T02:18:45;98892.47;;;11.30;94.89
9523;BME280;63165;43.016;25.784;2023-04-04T02:21:12;98906.34;;;11.32;95.41
9523;BME280;63165;43.016;25.784;2023-04-04T02:23:39;98903.78;;;11.31;95.76
9523;BME280;63165;43.016;25.784;2023-04-04T02:26:07;98906.34;;;11.32;95.94
9523;BME280;63165;43.016;25.784;2023-04-04T02:28:34;98904.59;;;11.33;96.01
9523;BME280;63165;43.016;25.784;2023-04-04T02:31:01;98906.31;;;11.34;96.79
9523;BME280;63165;43.016;25.784;2023-04-04T02:33:30;98913.38;;;11.32;96.63
9523;BME280;63165;43.016;25.784;2023-04-04T02:35:57;98891.78;;;11.25;96.69
9523;BME280;63165;43.016;25.784;2023-04-04T02:38:25;98900.44;;;11.27;97.08
9523;BME280;63165;43.016;25.784;2023-04-04T02:40:53;98911.59;;;11.32;97.74
9523;BME280;63165;43.016;25.784;2023-04-04T02:43:20;98893.72;;;11.20;97.89
9523;BME280;63165;43.016;25.784;2023-04-04T02:45:47;98903.16;;;11.24;97.56
9523;BME280;63165;43.016;25.784;2023-04-04T02:48:14;98906.25;;;11.35;97.84
9523;BME280;63165;43.016;25.784;2023-04-04T02:50:46;98854.69;;;10.90;97.44
9523;BME280;63165;43.016;25.784;2023-04-04T02:53:14;98912.44;;;11.33;97.34
9523;BME280;63165;43.016;25.784;2023-04-04T02:55:41;98906.34;;;11.32;98.37
9523;BME280;63165;43.016;25.784;2023-04-04T02:58:08;98911.69;;;11.29;98.18
9523;BME280;63165;43.016;25.784;2023-04-04T03:00:36;98922.31;;;11.26;97.98
9523;BME280;63165;43.016;25.784;2023-04-04T03:03:03;98914.84;;;11.15;98.30
9523;BME280;63165;43.016;25.784;2023-04-04T03:05:31;98941.53;;;11.25;99.01
9523;BME280;63165;43.016;25.784;2023-04-04T03:08:00;98929.34;;;11.24;98.80
9523;BME280;63165;43.016;25.784;2023-04-04T03:10:29;98920.69;;;11.22;98.80
9523;BME280;63165;43.016;25.784;2023-04-04T03:12:56;98925.09;;;11.21;98.54
9523;BME280;63165;43.016;25.784;2023-04-04T03:15:25;98935.41;;;11.26;99.18
9523;BME280;63165;43.016;25.784;2023-04-04T03:17:52;98934.56;;;11.24;98.83
9523;BME280;63165;43.016;25.784;2023-04-04T03:20:20;98878.69;;;11.01;98.62
9523;BME280;63165;43.016;25.784;2023-04-04T03:22:47;98908.75;;;11.15;99.14
9523;BME280;63165;43.016;25.784;2023-04-04T03:25:18;98906.19;;;11.13;98.84
9523;BME280;63165;43.016;25.784;2023-04-04T03:27:45;98902.84;;;11.10;98.92
9523;BME280;63165;43.016;25.784;2023-04-04T03:30:12;98911.19;;;11.19;99.28
9523;BME280;63165;43.016;25.784;2023-04-04T03:32:39;98917.31;;;11.18;99.30
9523;BME280;63165;43.016;25.784;2023-04-04T03:35:07;98898.28;;;11.15;99.80
9523;BME280;63165;43.016;25.784;2023-04-04T03:37:34;98912.09;;;11.18;99.85
9523;BME280;63165;43.016;25.784;2023-04-04T03:40:02;98883.72;;;11.07;99.40
9523;BME280;63165;43.016;25.784;2023-04-04T03:42:34;98916.25;;;11.24;100.00
9523;BME280;63165;43.016;25.784;2023-04-04T03:45:02;98902.50;;;11.19;99.61
9523;BME280;63165;43.016;25.784;2023-04-04T03:47:30;98885.47;;;11.07;99.65
9523;BME280;63165;43.016;25.784;2023-04-04T03:49:57;98895.59;;;11.16;99.79
9523;BME280;63165;43.016;25.784;2023-04-04T03:52:24;98900.84;;;11.16;100.00
9523;BME280;63165;43.016;25.784;2023-04-04T03:54:52;98915.63;;;11.17;99.73
9523;BME280;63165;43.016;25.784;2023-04-04T03:57:19;98910.22;;;11.22;100.00
9523;BME280;63165;43.016;25.784;2023-04-04T03:59:48;98914.59;;;11.21;99.92
9523;BME280;63165;43.016;25.784;2023-04-04T04:02:15;98920.03;;;11.17;100.00
9523;BME280;63165;43.016;25.784;2023-04-04T04:04:42;98911.94;;;11.23;100.00
9523;BME280;63165;43.016;25.784;2023-04-04T04:07:09;98913.56;;;11.25;100.00
9523;BME280;63165;43.016;25.784;2023-04-04T04:09:36;98904.19;;;11.20;100.00
9523;BME280;63165;43.016;25.784;2023-04-04T04:12:04;98876.81;;;11.05;100.00
9523;BME280;63165;43.016;25.784;2023-04-04T04:14:32;98900.69;;;11.21;100.00
9523;BME280;63165;43.016;25.784;2023-04-04T04:17:01;98892.03;;;11.19;100.00
9523;BME280;63165;43.016;25.784;2023-04-04T04:19:28;98906.84;;;11.18;100.00
9523;BME280;63165;43.016;25.784;2023-04-04T04:21:55;98909.56;;;11.17;100.00
9523;BME280;63165;43.016;25.784;2023-04-04T04:24:22;98864.03;;;10.97;100.00
9523;BME280;63165;43.016;25.784;2023-04-04T04:26:49;98904.63;;;11.09;100.00
9523;BME280;63165;43.016;25.784;2023-04-04T04:29:18;98868.47;;;10.95;100.00
9523;BME280;63165;43.016;25.784;2023-04-04T04:31:45;98857.94;;;10.97;100.00
9523;BME280;63165;43.016;25.784;2023-04-04T04:34:14;98896.63;;;11.12;100.00
9523;BME280;63165;43.016;25.784;2023-04-04T04:36:41;98869.59;;;11.12;100.00
9523;BME280;63165;43.016;25.784;2023-04-04T04:39:08;98862.88;;;11.04;100.00
9523;BME280;63165;43.016;25.784;2023-04-04T04:41:35;98857.72;;;11.03;100.00
9523;BME280;63165;43.016;25.784;2023-04-04T04:44:03;98862.72;;;11.09;100.00
9523;BME280;63165;43.016;25.784;2023-04-04T04:46:30;98867.00;;;11.12;100.00
9523;BME280;63165;43.016;25.784;2023-04-04T04:48:57;98867.78;;;11.14;100.00
9523;BME280;63165;43.016;25.784;2023-04-04T04:51:26;98864.31;;;11.13;100.00
9523;BME280;63165;43.016;25.784;2023-04-04T04:53:54;98867.03;;;11.10;100.00
9523;BME280;63165;43.016;25.784;2023-04-04T04:56:21;98877.34;;;11.15;100.00
9523;BME280;63165;43.016;25.784;2023-04-04T04:58:48;98855.16;;;11.01;100.00
9523;BME280;63165;43.016;25.784;2023-04-04T05:01:15;98870.28;;;11.17;100.00
9523;BME280;63165;43.016;25.784;2023-04-04T05:03:42;98839.63;;;10.97;100.00
9523;BME280;63165;43.016;25.784;2023-04-04T05:06:09;98863.22;;;11.19;100.00
9523;BME280;63165;43.016;25.784;2023-04-04T05:08:38;98835.81;;;11.05;100.00
9523;BME280;63165;43.016;25.784;2023-04-04T05:11:06;98827.38;;;10.97;100.00
9523;BME280;63165;43.016;25.784;2023-04-04T05:13:33;98845.25;;;11.10;100.00
9523;BME280;63165;43.016;25.784;2023-04-04T05:16:00;98843.25;;;11.16;100.00
9523;BME280;63165;43.016;25.784;2023-04-04T05:18:28;98837.41;;;11.10;100.00
9523;BME280;63165;43.016;25.784;2023-04-04T05:20:55;98834.00;;;11.07;100.00
9523;BME280;63165;43.016;25.784;2023-04-04T05:23:22;98857.75;;;11.25;100.00
9523;BME280;63165;43.016;25.784;2023-04-04T05:25:51;98857.56;;;11.30;100.00
9523;BME280;63165;43.016;25.784;2023-04-04T05:28:19;98860.06;;;11.33;100.00
9523;BME280;63165;43.016;25.784;2023-04-04T05:30:46;98860.00;;;11.34;100.00
9523;BME280;63165;43.016;25.784;2023-04-04T05:33:13;98843.25;;;11.38;100.00
9523;BME280;63165;43.016;25.784;2023-04-04T05:35:40;98851.75;;;11.45;100.00
9523;BME280;63165;43.016;25.784;2023-04-04T05:38:08;98849.97;;;11.45;100.00
9523;BME280;63165;43.016;25.784;2023-04-04T05:40:35;98837.50;;;11.52;100.00
9523;BME280;63165;43.016;25.784;2023-04-04T05:43:03;98837.56;;;11.51;100.00
9523;BME280;63165;43.016;25.784;2023-04-04T05:45:31;98803.31;;;11.33;100.00
9523;BME280;63165;43.016;25.784;2023-04-04T05:47:58;98844.44;;;11.53;100.00
9523;BME280;63165;43.016;25.784;2023-04-04T05:50:25;98846.88;;;11.58;100.00
9523;BME280;63165;43.016;25.784;2023-04-04T05:52:53;98813.50;;;11.41;100.00
9523;BME280;63165;43.016;25.784;2023-04-04T05:55:21;98828.13;;;11.46;100.00
9523;BME280;63165;43.016;25.784;2023-04-04T05:57:49;98838.81;;;11.62;100.00
9523;BME280;63165;43.016;25.784;2023-04-04T06:00:19;98833.56;;;11.62;100.00
9523;BME280;63165;43.016;25.784;2023-04-04T06:02:46;98830.84;;;11.65;100.00
9523;BME280;63165;43.016;25.784;2023-04-04T06:05:13;98817.50;;;11.50;100.00
9523;BME280;63165;43.016;25.784;2023-04-04T06:07:41;98844.13;;;11.61;100.00
9523;BME280;63165;43.016;25.784;2023-04-04T06:10:08;98840.59;;;11.62;100.00
9523;BME280;63165;43.016;25.784;2023-04-04T06:12:36;98836.81;;;11.69;100.00
9523;BME280;63165;43.016;25.784;2023-04-04T06:15:03;98837.72;;;11.68;100.00
9523;BME280;63165;43.016;25.784;2023-04-04T06:17:32;98825.28;;;11.73;100.00
9523;BME280;63165;43.016;25.784;2023-04-04T06:19:59;98840.94;;;11.75;100.00
9523;BME280;63165;43.016;25.784;2023-04-04T06:22:27;98822.72;;;11.72;100.00
9523;BME280;63165;43.016;25.784;2023-04-04T06:24:54;98839.75;;;11.82;100.00
9523;BME280;63165;43.016;25.784;2023-04-04T06:27:21;98830.28;;;11.79;100.00
9523;BME280;63165;43.016;25.784;2023-04-04T06:29:48;98842.25;;;11.85;100.00
9523;BME280;63165;43.016;25.784;2023-04-04T06:32:15;98824.63;;;11.68;100.00
9523;BME280;63165;43.016;25.784;2023-04-04T06:34:44;98859.63;;;11.88;100.00
9523;BME280;63165;43.016;25.784;2023-04-04T06:37:11;98840.50;;;11.85;100.00
9523;BME280;63165;43.016;25.784;2023-04-04T06:39:38;98782.13;;;11.39;100.00
9523;BME280;63165;43.016;25.784;2023-04-04T06:42:05;98853.84;;;11.79;100.00
9523;BME280;63165;43.016;25.784;2023-04-04T06:44:33;98817.81;;;11.64;100.00
9523;BME280;63165;43.016;25.784;2023-04-04T06:47:00;98847.72;;;11.80;100.00
9523;BME280;63165;43.016;25.784;2023-04-04T06:49:27;98843.47;;;11.76;100.00
9523;BME280;63165;43.016;25.784;2023-04-04T06:51:56;98807.38;;;11.62;100.00
9523;BME280;63165;43.016;25.784;2023-04-04T06:54:24;98853.59;;;11.85;100.00
9523;BME280;63165;43.016;25.784;2023-04-04T06:56:51;98837.22;;;11.80;100.00
9523;BME280;63165;43.016;25.784;2023-04-04T06:59:18;98824.34;;;11.74;100.00
9523;BME280;63165;43.016;25.784;2023-04-04T07:01:45;98830.91;;;11.64;100.00
9523;BME280;63165;43.016;25.784;2023-04-04T07:04:17;98843.44;;;11.78;100.00
9523;BME280;63165;43.016;25.784;2023-04-04T07:06:45;98834.84;;;11.74;100.00
9523;BME280;63165;43.016;25.784;2023-04-04T07:09:13;98833.31;;;11.69;99.88
9523;BME280;63165;43.016;25.784;2023-04-04T07:11:41;98836.56;;;11.75;98.87
9523;BME280;63165;43.016;25.784;2023-04-04T07:14:08;98847.09;;;11.74;98.82
9523;BME280;63165;43.016;25.784;2023-04-04T07:16:35;98838.56;;;11.69;98.33
9523;BME280;63165;43.016;25.784;2023-04-04T07:19:03;98792.09;;;11.30;98.61
9523;BME280;63165;43.016;25.784;2023-04-04T07:21:30;98827.13;;;11.49;98.00
9523;BME280;63165;43.016;25.784;2023-04-04T07:23:58;98860.63;;;11.63;98.42
9523;BME280;63165;43.016;25.784;2023-04-04T07:26:28;98857.94;;;11.64;98.08
9523;BME280;63165;43.016;25.784;2023-04-04T07:28:55;98839.97;;;11.55;98.10
9523;BME280;63165;43.016;25.784;2023-04-04T07:31:23;98841.00;;;11.51;97.92
9523;BME280;63165;43.016;25.784;2023-04-04T07:33:51;98855.63;;;11.57;98.02
9523;BME280;63165;43.016;25.784;2023-04-04T07:36:19;98851.19;;;11.59;98.00
9523;BME280;63165;43.016;25.784;2023-04-04T07:38:46;98825.88;;;11.37;98.00
9523;BME280;63165;43.016;25.784;2023-04-04T07:41:13;98843.88;;;11.45;97.97
9523;BME280;63165;43.016;25.784;2023-04-04T07:43:42;98870.44;;;11.58;98.15
9523;BME280;63165;43.016;25.784;2023-04-04T07:46:09;98858.38;;;11.54;97.51
9523;BME280;63165;43.016;25.784;2023-04-04T07:48:37;98861.22;;;11.48;97.71
9523;BME280;63165;43.016;25.784;2023-04-04T07:51:04;98867.25;;;11.50;97.58
9523;BME280;63165;43.016;25.784;2023-04-04T07:53:32;98862.88;;;11.50;97.16
9523;BME280;63165;43.016;25.784;2023-04-04T07:55:59;98861.44;;;11.43;97.56
9523;BME280;63165;43.016;25.784;2023-04-04T07:58:30;98859.72;;;11.42;98.06
9523;BME280;63165;43.016;25.784;2023-04-04T08:00:59;98861.00;;;11.32;98.16
9523;BME280;63165;43.016;25.784;2023-04-04T08:03:27;98872.31;;;11.32;98.43
9523;BME280;63165;43.016;25.784;2023-04-04T08:05:54;98878.59;;;11.28;99.24
9523;BME280;63165;43.016;25.784;2023-04-04T08:08:21;98871.94;;;11.19;99.35
9523;BME280;63165;43.016;25.784;2023-04-04T08:10:48;98881.31;;;11.25;99.93
9523;BME280;63165;43.016;25.784;2023-04-04T08:13:16;98883.09;;;11.24;100.00
9523;BME280;63165;43.016;25.784;2023-04-04T08:15:43;98886.59;;;11.23;100.00
9523;BME280;63165;43.016;25.784;2023-04-04T08:18:12;98880.41;;;11.26;100.00
9523;BME280;63165;43.016;25.784;2023-04-04T08:20:40;98885.13;;;11.16;100.00
9523;BME280;63165;43.016;25.784;2023-04-04T08:23:07;98883.09;;;11.24;100.00
9523;BME280;63165;43.016;25.784;2023-04-04T08:25:34;98898.75;;;11.26;100.00
9523;BME280;63165;43.016;25.784;2023-04-04T08:28:01;98875.75;;;11.11;99.94
9523;BME280;63165;43.016;25.784;2023-04-04T08:30:30;98887.25;;;11.06;98.73
9523;BME280;63165;43.016;25.784;2023-04-04T08:32:57;98883.66;;;10.85;98.22
9523;BME280;63165;43.016;25.784;2023-04-04T08:35:26;98879.28;;;10.86;98.41
9523;BME280;63165;43.016;25.784;2023-04-04T08:37:53;98880.25;;;10.83;98.44
9523;BME280;63165;43.016;25.784;2023-04-04T08:40:22;98894.28;;;10.81;98.64
9523;BME280;63165;43.016;25.784;2023-04-04T08:42:50;98897.06;;;10.76;98.91
9523;BME280;63165;43.016;25.784;2023-04-04T08:45:18;98896.50;;;10.68;98.53
9523;BME280;63165;43.016;25.784;2023-04-04T08:47:47;98877.78;;;10.55;98.91
9523;BME280;63165;43.016;25.784;2023-04-04T08:50:16;98902.72;;;10.64;99.23
9523;BME280;63165;43.016;25.784;2023-04-04T08:52:46;98908.13;;;10.59;99.52
9523;BME280;63165;43.016;25.784;2023-04-04T08:55:13;98917.84;;;10.56;98.88
9523;BME280;63165;43.016;25.784;2023-04-04T08:57:41;98922.38;;;10.51;99.47
9523;BME280;63165;43.016;25.784;2023-04-04T09:00:09;98913.97;;;10.42;99.30
9523;BME280;63165;43.016;25.784;2023-04-04T09:02:41;98910.63;;;10.37;99.71
9523;BME280;63165;43.016;25.784;2023-04-04T09:05:09;98915.13;;;10.34;99.91
9523;BME280;63165;43.016;25.784;2023-04-04T09:07:38;98928.84;;;10.40;100.00
9523;BME280;63165;43.016;25.784;2023-04-04T09:10:09;98894.66;;;10.20;99.71
9523;BME280;63165;43.016;25.784;2023-04-04T09:12:38;98922.91;;;10.35;99.63
9523;BME280;63165;43.016;25.784;2023-04-04T09:15:08;98941.16;;;10.37;100.00
9523;BME280;63165;43.016;25.784;2023-04-04T09:17:36;98932.41;;;10.38;100.00
9523;BME280;63165;43.016;25.784;2023-04-04T09:20:34;98937.38;;;10.45;100.00
9523;BME280;63165;43.016;25.784;2023-04-04T09:23:04;98950.56;;;10.42;100.00
9523;BME280;63165;43.016;25.784;2023-04-04T09:25:33;98941.59;;;10.49;100.00
9523;BME280;63165;43.016;25.784;2023-04-04T09:28:01;98948.56;;;10.49;100.00
9523;BME280;63165;43.016;25.784;2023-04-04T09:30:31;98958.84;;;10.55;100.00
9523;BME280;63165;43.016;25.784;2023-04-04T09:33:03;98941.66;;;10.48;99.91
9523;BME280;63165;43.016;25.784;2023-04-04T09:35:33;98949.19;;;10.57;99.96
9523;BME280;63165;43.016;25.784;2023-04-04T09:38:01;98960.72;;;10.52;100.00
9523;BME280;63165;43.016;25.784;2023-04-04T09:40:28;98966.84;;;10.51;99.80
9523;BME280;63165;43.016;25.784;2023-04-04T09:43:01;98959.78;;;10.53;99.38
9523;BME280;63165;43.016;25.784;2023-04-04T09:45:29;98963.41;;;10.48;99.14
9523;BME280;63165;43.016;25.784;2023-04-04T09:47:56;98964.94;;;10.56;99.36
9523;BME280;63165;43.016;25.784;2023-04-04T09:50:24;98978.97;;;10.53;99.37
9523;BME280;63165;43.016;25.784;2023-04-04T09:52:55;98967.19;;;10.40;99.02
9523;BME280;63165;43.016;25.784;2023-04-04T09:55:31;98980.22;;;10.41;99.22
9523;BME280;63165;43.016;25.784;2023-04-04T09:58:10;98981.28;;;10.36;98.89
9523;BME280;63165;43.016;25.784;2023-04-04T10:00:39;98976.78;;;10.39;99.12
9523;BME280;63165;43.016;25.784;2023-04-04T10:03:12;98986.44;;;10.37;99.17
9523;BME280;63165;43.016;25.784;2023-04-04T10:05:40;98991.91;;;10.31;98.85
9523;BME280;63165;43.016;25.784;2023-04-04T10:08:14;98969.53;;;10.21;98.81
9523;BME280;63165;43.016;25.784;2023-04-04T10:10:46;98973.09;;;10.18;98.27
9523;BME280;63165;43.016;25.784;2023-04-04T10:13:21;98949.72;;;10.14;99.05
9523;BME280;63165;43.016;25.784;2023-04-04T10:15:51;98954.91;;;10.15;99.62
9523;BME280;63165;43.016;25.784;2023-04-04T10:18:19;98966.28;;;10.14;99.73
9523;BME280;63165;43.016;25.784;2023-04-04T10:20:48;98963.84;;;10.08;99.17
9523;BME280;63165;43.016;25.784;2023-04-04T10:23:16;98979.19;;;10.19;99.72
9523;BME280;63165;43.016;25.784;2023-04-04T10:25:45;98992.38;;;10.16;99.79
9523;BME280;63165;43.016;25.784;2023-04-04T10:28:13;98982.75;;;10.16;100.00
9523;BME280;63165;43.016;25.784;2023-04-04T10:30:48;98993.97;;;10.20;99.90
9523;BME280;63165;43.016;25.784;2023-04-04T10:33:20;98982.88;;;10.11;99.78
9523;BME280;63165;43.016;25.784;2023-04-04T10:35:50;98994.22;;;10.12;99.55
9523;BME280;63165;43.016;25.784;2023-04-04T10:38:24;98996.88;;;10.10;99.48
9523;BME280;63165;43.016;25.784;2023-04-04T10:40:52;98995.25;;;10.06;99.13
9523;BME280;63165;43.016;25.784;2023-04-04T10:43:24;98991.53;;;10.14;99.41
9523;BME280;63165;43.016;25.784;2023-04-04T10:45:55;98976.16;;;10.04;99.63
9523;BME280;63165;43.016;25.784;2023-04-04T10:48:26;99005.19;;;10.23;99.66
9523;BME280;63165;43.016;25.784;2023-04-04T10:50:54;99002.66;;;10.20;99.16
9523;BME280;63165;43.016;25.784;2023-04-04T10:53:22;99011.31;;;10.22;99.37
9523;BME280;63165;43.016;25.784;2023-04-04T10:55:49;98983.81;;;10.10;99.13
9523;BME280;63165;43.016;25.784;2023-04-04T10:58:17;99010.28;;;10.26;98.51
9523;BME280;63165;43.016;25.784;2023-04-04T11:00:51;99008.72;;;10.21;98.13
9523;BME280;63165;43.016;25.784;2023-04-04T11:03:21;99017.28;;;10.26;98.34
9523;BME280;63165;43.016;25.784;2023-04-04T11:05:48;99012.06;;;10.26;97.45
9523;BME280;63165;43.016;25.784;2023-04-04T11:08:22;99020.09;;;10.20;97.32
9523;BME280;63165;43.016;25.784;2023-04-04T11:10:51;99021.97;;;10.16;97.53
9523;BME280;63165;43.016;25.784;2023-04-04T11:13:19;99014.97;;;10.17;98.21
9523;BME280;63165;43.016;25.784;2023-04-04T11:15:54;99017.63;;;10.15;97.73
9523;BME280;63165;43.016;25.784;2023-04-04T11:18:44;99002.94;;;10.11;97.34
9523;BME280;63165;43.016;25.784;2023-04-04T11:21:14;99010.06;;;10.06;97.69
9523;BME280;63165;43.016;25.784;2023-04-04T11:24:13;99009.78;;;10.15;99.26
9523;BME280;63165;43.016;25.784;2023-04-04T11:26:44;99005.72;;;10.06;99.08
9523;BME280;63165;43.016;25.784;2023-04-04T11:29:19;99008.09;;;10.14;99.19
9523;BME280;63165;43.016;25.784;2023-04-04T11:31:48;98997.50;;;10.17;99.20
9523;BME280;63165;43.016;25.784;2023-04-04T11:34:29;98962.22;;;10.04;99.30
9523;BME280;63165;43.016;25.784;2023-04-04T11:36:56;98990.34;;;10.24;99.03
9523;BME280;63165;43.016;25.784;2023-04-04T11:39:27;98996.38;;;10.26;98.69
9523;BME280;63165;43.016;25.784;2023-04-04T11:41:58;98947.25;;;10.09;98.59
9523;BME280;63165;43.016;25.784;2023-04-04T11:44:29;98955.91;;;10.11;99.72
9523;BME280;63165;43.016;25.784;2023-04-04T11:47:01;98972.91;;;10.24;100.00
9523;BME280;63165;43.016;25.784;2023-04-04T11:49:33;98991.25;;;10.51;100.00
9523;BME280;63165;43.016;25.784;2023-04-04T11:52:03;98997.88;;;10.61;100.00
9523;BME280;63165;43.016;25.784;2023-04-04T11:54:33;98994.00;;;10.72;100.00
9523;BME280;63165;43.016;25.784;2023-04-04T11:57:00;99004.38;;;10.75;100.00
9523;BME280;63165;43.016;25.784;2023-04-04T11:59:28;98993.88;;;10.76;99.46
9523;BME280;63165;43.016;25.784;2023-04-04T12:01:56;98980.00;;;10.74;99.23
9523;BME280;63165;43.016;25.784;2023-04-04T12:04:24;98995.63;;;10.76;98.18
9523;BME280;63165;43.016;25.784;2023-04-04T12:06:54;98980.25;;;10.66;97.58
9523;BME280;63165;43.016;25.784;2023-04-04T12:09:24;98996.72;;;10.70;96.71
9523;BME280;63165;43.016;25.784;2023-04-04T12:11:51;98979.81;;;10.54;96.44
9523;BME280;63165;43.016;25.784;2023-04-04T12:14:19;99009.16;;;10.62;96.34
9523;BME280;63165;43.016;25.784;2023-04-04T12:16:48;99008.53;;;10.55;95.71
9523;BME280;63165;43.016;25.784;2023-04-04T12:19:16;98992.59;;;10.36;95.38
9523;BME280;63165;43.016;25.784;2023-04-04T12:21:44;98971.09;;;10.26;95.98
9523;BME280;63165;43.016;25.784;2023-04-04T12:24:13;99007.91;;;10.47;96.22
9523;BME280;63165;43.016;25.784;2023-04-04T12:26:43;99003.66;;;10.44;95.95
9523;BME280;63165;43.016;25.784;2023-04-04T12:29:13;99002.94;;;10.39;96.40
9523;BME280;63165;43.016;25.784;2023-04-04T12:31:43;99001.00;;;10.46;96.21
9523;BME280;63165;43.016;25.784;2023-04-04T12:34:15;99001.13;;;10.41;96.00
9523;BME280;63165;43.016;25.784;2023-04-04T12:36:46;99006.00;;;10.52;95.68
9523;BME280;63165;43.016;25.784;2023-04-04T12:39:15;99007.78;;;10.52;96.04
9523;BME280;63165;43.016;25.784;2023-04-04T12:41:46;99004.25;;;10.53;95.67
9523;BME280;63165;43.016;25.784;2023-04-04T12:44:25;99010.44;;;10.50;96.11
9523;BME280;63165;43.016;25.784;2023-04-04T12:46:56;98998.06;;;10.55;95.99
9523;BME280;63165;43.016;25.784;2023-04-04T12:49:28;99002.34;;;10.58;95.89
9523;BME280;63165;43.016;25.784;2023-04-04T12:51:56;99005.72;;;10.61;96.06
9523;BME280;63165;43.016;25.784;2023-04-04T12:54:31;99013.66;;;10.58;95.50
9523;BME280;63165;43.016;25.784;2023-04-04T12:57:01;99023.03;;;10.64;96.08
9523;BME280;63165;43.016;25.784;2023-04-04T12:59:29;99005.72;;;10.61;96.02
9523;BME280;63165;43.016;25.784;2023-04-04T13:01:56;98982.66;;;10.47;95.87
9523;BME280;63165;43.016;25.784;2023-04-04T13:04:24;99004.91;;;10.59;96.06